createdAt,value
2022-09-12T00:01:26.796Z,38.53
2022-09-12T00:03:55.877Z,37.33
2022-09-12T00:06:25.496Z,42.00
2022-09-12T00:08:56.066Z,46.10
2022-09-12T00:11:24.728Z,41.17
2022-09-12T00:13:53.172Z,36.90
2022-09-12T00:16:22.616Z,37.63
2022-09-12T00:18:53.660Z,42.87
2022-09-12T00:21:22.769Z,42.23
2022-09-12T00:23:51.780Z,33.73
2022-09-12T00:26:21.755Z,38.30
2022-09-12T00:28:50.685Z,47.60
2022-09-12T00:31:21.168Z,35.77
2022-09-12T00:33:49.687Z,41.00
2022-09-12T00:36:20.378Z,37.63
2022-09-12T00:38:49.944Z,40.77
2022-09-12T00:41:19.844Z,41.70
2022-09-12T00:43:49.219Z,41.03
2022-09-12T00:46:28.099Z,33.03
2022-09-12T00:48:58.865Z,33.70
2022-09-12T00:51:29.107Z,36.73
2022-09-12T00:53:59.413Z,47.50
2022-09-12T00:56:29.105Z,41.80
2022-09-12T00:58:59.318Z,41.53
2022-09-12T01:01:32.330Z,36.00
2022-09-12T01:04:01.294Z,32.50
2022-09-12T01:06:36.353Z,42.20
2022-09-12T01:09:05.866Z,42.67
2022-09-12T01:11:36.344Z,29.03
2022-09-12T01:14:07.500Z,33.17
2022-09-12T01:16:37.436Z,38.83
2022-09-12T01:19:14.958Z,35.40
2022-09-12T01:21:50.424Z,38.47
2022-09-12T01:24:31.460Z,38.30
2022-09-12T01:27:27.339Z,33.93
2022-09-12T01:30:04.897Z,38.47
2022-09-12T01:32:38.130Z,38.13
2022-09-12T01:35:08.617Z,42.80
2022-09-12T01:37:42.120Z,39.97
2022-09-12T01:40:16.632Z,30.70
2022-09-12T01:42:48.335Z,29.87
2022-09-12T01:45:20.242Z,35.47
2022-09-12T01:47:52.008Z,32.47
2022-09-12T01:50:21.598Z,29.53
2022-09-12T01:52:52.263Z,36.30
2022-09-12T01:55:22.678Z,31.17
2022-09-12T01:57:54.135Z,28.33
2022-09-12T02:00:22.614Z,35.40
2022-09-12T02:02:54.727Z,33.47
2022-09-12T02:05:26.055Z,40.67
2022-09-12T02:07:56.982Z,28.80
2022-09-12T02:10:32.215Z,33.77
2022-09-12T02:13:05.470Z,33.70
2022-09-12T02:15:36.050Z,29.97
2022-09-12T02:18:07.569Z,30.20
2022-09-12T02:20:48.073Z,35.80
2022-09-12T02:23:20.516Z,29.23
2022-09-12T02:25:50.898Z,29.70
2022-09-12T02:28:22.635Z,29.03
2022-09-12T02:30:54.671Z,30.17
2022-09-12T02:33:26.716Z,29.20
2022-09-12T02:35:58.270Z,34.77
2022-09-12T02:38:29.988Z,46.27
2022-09-12T02:40:58.792Z,39.27
2022-09-12T02:43:27.358Z,30.80
2022-09-12T02:45:56.128Z,29.60
2022-09-12T02:48:28.970Z,33.87
2022-09-12T02:50:57.843Z,36.10
2022-09-12T02:53:35.021Z,38.37
2022-09-12T02:56:04.298Z,30.00
2022-09-12T02:58:33.448Z,32.20
2022-09-12T03:01:05.820Z,31.77
2022-09-12T03:03:45.987Z,41.83
2022-09-12T03:06:18.064Z,34.73
2022-09-12T03:08:52.087Z,28.97
2022-09-12T03:11:27.064Z,37.60
2022-09-12T03:14:00.142Z,32.20
2022-09-12T03:16:31.293Z,33.43
2022-09-12T03:19:04.927Z,34.67
2022-09-12T03:21:35.730Z,34.53
2022-09-12T03:24:10.040Z,29.83
2022-09-12T03:26:41.639Z,35.03
2022-09-12T03:29:10.752Z,32.63
2022-09-12T03:31:39.409Z,34.37
2022-09-12T03:34:13.090Z,35.57
2022-09-12T03:36:41.925Z,33.10
2022-09-12T03:39:10.517Z,41.20
2022-09-12T03:41:39.211Z,37.67
2022-09-12T03:44:07.818Z,32.53
2022-09-12T03:46:36.605Z,43.00
2022-09-12T03:49:06.007Z,36.40
2022-09-12T03:51:35.818Z,35.73
2022-09-12T03:54:04.389Z,33.33
2022-09-12T03:56:33.180Z,30.03
2022-09-12T03:59:01.653Z,29.17
2022-09-12T04:01:30.189Z,29.53
2022-09-12T04:03:58.689Z,33.77
2022-09-12T04:06:27.197Z,35.37
2022-09-12T04:08:57.127Z,29.83
2022-09-12T04:11:25.633Z,27.47
2022-09-12T04:13:54.239Z,32.40
2022-09-12T04:16:22.915Z,31.47
2022-09-12T04:18:51.389Z,31.90
2022-09-12T04:21:21.800Z,26.73
2022-09-12T04:23:50.354Z,30.90
2022-09-12T04:26:21.113Z,21.67
2022-09-12T04:28:50.391Z,25.57
2022-09-12T04:31:22.525Z,27.47
2022-09-12T04:33:55.127Z,28.20
2022-09-12T04:36:23.776Z,24.67
2022-09-12T04:38:52.979Z,26.50
2022-09-12T04:41:23.881Z,22.40
2022-09-12T04:43:53.861Z,22.30
2022-09-12T04:46:22.912Z,22.30
2022-09-12T04:48:56.074Z,25.67
2022-09-12T04:51:27.622Z,23.53
2022-09-12T04:53:56.783Z,25.47
2022-09-12T04:56:28.757Z,24.13
2022-09-12T04:58:58.767Z,24.33
2022-09-12T05:01:28.047Z,31.87
2022-09-12T05:03:57.610Z,24.20
2022-09-12T05:06:27.384Z,21.57
2022-09-12T05:08:57.470Z,23.23
2022-09-12T05:12:00.110Z,23.33
2022-09-12T05:14:22.702Z,25.40
2022-09-12T05:16:52.029Z,20.53
2022-09-12T05:19:21.410Z,27.83
2022-09-12T05:21:50.438Z,22.53
2022-09-12T05:24:19.560Z,21.33
2022-09-12T05:26:49.995Z,24.93
2022-09-12T05:29:19.270Z,27.57
2022-09-12T05:31:52.263Z,24.57
2022-09-12T05:34:21.812Z,22.83
2022-09-12T05:36:50.511Z,18.67
2022-09-12T05:39:19.688Z,26.97
2022-09-12T05:41:49.760Z,21.77
2022-09-12T05:44:18.332Z,16.67
2022-09-12T05:46:50.365Z,18.83
2022-09-12T05:49:19.131Z,23.13
2022-09-12T05:51:47.694Z,16.70
2022-09-12T05:54:17.311Z,17.57
2022-09-12T05:56:51.971Z,19.20
2022-09-12T05:59:24.026Z,19.50
2022-09-12T06:01:52.700Z,16.43
2022-09-12T06:04:21.188Z,14.20
2022-09-12T06:06:50.130Z,13.10
2022-09-12T06:09:19.396Z,15.23
2022-09-12T06:11:48.323Z,14.47
2022-09-12T06:14:17.681Z,21.53
2022-09-12T06:16:48.584Z,13.97
2022-09-12T06:19:18.592Z,14.73
2022-09-12T06:21:48.100Z,12.73
2022-09-12T06:24:17.613Z,11.83
2022-09-12T06:26:47.348Z,15.83
2022-09-12T06:29:16.152Z,12.27
2022-09-12T06:31:45.286Z,15.73
2022-09-12T06:34:16.192Z,15.87
2022-09-12T06:36:45.950Z,15.93
2022-09-12T06:39:16.209Z,11.23
2022-09-12T06:41:45.105Z,17.10
2022-09-12T06:44:15.978Z,13.07
2022-09-12T06:46:45.161Z,12.23
2022-09-12T06:49:15.412Z,10.13
2022-09-12T06:51:44.535Z,15.03
2022-09-12T06:54:14.370Z,11.90
2022-09-12T06:56:42.996Z,11.97
2022-09-12T06:59:11.761Z,11.33
2022-09-12T07:01:41.137Z,14.20
2022-09-12T07:04:10.115Z,13.17
2022-09-12T07:06:40.875Z,11.43
2022-09-12T07:09:10.435Z,12.43
2022-09-12T07:11:40.655Z,10.20
2022-09-12T07:14:10.556Z,10.37
2022-09-12T07:16:39.329Z,10.77
2022-09-12T07:19:08.896Z,14.37
2022-09-12T07:21:40.336Z,12.80
2022-09-12T07:24:11.502Z,11.50
2022-09-12T07:26:42.079Z,11.60
2022-09-12T07:32:04.103Z,10.30
2022-09-12T07:34:32.647Z,11.43
2022-09-12T07:37:01.164Z,12.00
2022-09-12T07:39:31.148Z,11.17
2022-09-12T07:42:00.387Z,10.10
2022-09-12T07:44:29.430Z,10.93
2022-09-12T07:46:57.945Z,8.77
2022-09-12T07:49:26.448Z,9.50
2022-09-12T07:51:55.022Z,11.80
2022-09-12T07:54:23.516Z,16.70
2022-09-12T07:56:53.486Z,11.70
2022-09-12T07:59:48.487Z,14.67
2022-09-12T08:02:17.223Z,12.37
2022-09-12T08:04:46.664Z,8.53
2022-09-12T08:07:15.181Z,10.30
2022-09-12T08:09:43.718Z,11.57
2022-09-12T08:12:13.668Z,8.57
2022-09-12T08:14:42.192Z,9.13
2022-09-12T08:17:10.807Z,9.93
2022-09-12T08:19:39.414Z,9.60
2022-09-12T08:22:08.250Z,8.80
2022-09-12T08:24:36.744Z,13.10
2022-09-12T08:27:05.523Z,11.10
2022-09-12T08:29:35.456Z,9.60
2022-09-12T08:32:04.816Z,11.43
2022-09-12T08:34:33.439Z,10.63
2022-09-12T08:37:02.045Z,8.93
2022-09-12T08:39:30.626Z,8.73
2022-09-12T08:42:02.883Z,9.97
2022-09-12T08:44:53.481Z,11.63
2022-09-12T08:47:26.668Z,9.80
2022-09-12T08:50:01.930Z,10.87
2022-09-12T08:52:32.668Z,8.00
2022-09-12T08:55:02.716Z,9.27
2022-09-12T08:57:31.385Z,8.40
2022-09-12T08:59:59.966Z,9.00
2022-09-12T09:02:52.919Z,7.90
2022-09-12T09:05:26.513Z,9.07
2022-09-12T09:08:02.770Z,8.50
2022-09-12T09:10:34.439Z,7.90
2022-09-12T09:13:07.731Z,8.37
2022-09-12T09:15:41.911Z,7.43
2022-09-12T09:18:14.461Z,7.13
2022-09-12T09:20:47.356Z,7.10
2022-09-12T09:23:17.406Z,7.97
2022-09-12T09:25:50.731Z,6.83
2022-09-12T09:28:21.832Z,8.10
2022-09-12T09:30:50.494Z,7.40
2022-09-12T09:33:22.342Z,7.07
2022-09-12T09:35:57.244Z,8.23
2022-09-12T09:38:27.153Z,7.83
2022-09-12T09:41:01.469Z,9.83
2022-09-12T09:43:30.291Z,6.30
2022-09-12T09:46:00.194Z,6.80
2022-09-12T09:48:30.211Z,7.17
2022-09-12T09:51:01.802Z,6.33
2022-09-12T09:53:35.088Z,7.50
2022-09-12T09:56:05.404Z,6.50
2022-09-12T09:58:35.141Z,7.50
2022-09-12T10:01:05.686Z,6.97
2022-09-12T10:03:36.178Z,7.23
2022-09-12T10:06:09.207Z,9.23
2022-09-12T10:08:38.532Z,8.43
2022-09-12T10:11:08.021Z,6.93
2022-09-12T10:13:42.260Z,6.87
2022-09-12T10:16:20.005Z,7.20
2022-09-12T10:18:48.563Z,6.47
2022-09-12T10:21:27.253Z,7.27
2022-09-12T10:24:00.990Z,5.97
2022-09-12T10:26:33.888Z,7.30
2022-09-12T10:29:06.242Z,6.93
2022-09-12T10:31:39.136Z,5.30
2022-09-12T10:34:07.868Z,8.73
2022-09-12T10:36:41.539Z,6.60
2022-09-12T10:39:18.453Z,6.43
2022-09-12T10:41:47.372Z,5.67
2022-09-12T10:44:17.430Z,5.10
2022-09-12T10:46:46.846Z,5.70
2022-09-12T10:49:23.570Z,5.20
2022-09-12T10:51:54.324Z,4.07
2022-09-12T10:54:23.868Z,5.07
2022-09-12T10:56:58.160Z,5.50
2022-09-12T10:59:34.247Z,5.80
2022-09-12T11:02:04.579Z,6.03
2022-09-12T11:04:43.614Z,4.90
2022-09-12T11:07:22.338Z,4.17
2022-09-12T11:09:54.890Z,4.73
2022-09-12T11:12:28.855Z,4.80
2022-09-12T11:15:02.102Z,4.40
2022-09-12T11:17:37.375Z,4.53
2022-09-12T11:20:18.624Z,6.43
2022-09-12T11:22:58.366Z,5.63
2022-09-12T11:25:30.984Z,5.63
2022-09-12T11:28:04.538Z,4.47
2022-09-12T11:30:35.859Z,3.60
2022-09-12T11:33:09.428Z,4.37
2022-09-12T11:35:42.459Z,4.43
2022-09-12T11:38:27.654Z,3.77
2022-09-12T11:40:57.109Z,4.27
2022-09-12T11:43:28.750Z,4.23
2022-09-12T11:46:01.389Z,9.00
2022-09-12T11:48:37.233Z,3.30
2022-09-12T11:51:07.266Z,4.40
2022-09-12T11:53:39.895Z,3.87
2022-09-12T11:56:13.859Z,3.10
2022-09-12T11:58:46.718Z,3.30
2022-09-12T12:01:17.261Z,4.03
2022-09-12T12:03:46.793Z,3.60
2022-09-12T12:06:19.351Z,3.47
2022-09-12T12:08:50.445Z,3.20
2022-09-12T12:11:28.525Z,4.33
2022-09-12T12:13:58.542Z,3.97
2022-09-12T12:16:28.531Z,4.43
2022-09-12T12:18:58.035Z,3.17
2022-09-12T12:21:37.868Z,6.00
2022-09-12T12:24:16.075Z,4.20
2022-09-12T12:26:51.325Z,2.80
2022-09-12T12:29:41.576Z,4.50
2022-09-12T12:32:22.403Z,2.57
2022-09-12T12:34:51.139Z,3.03
2022-09-12T12:37:38.749Z,2.63
2022-09-12T12:40:11.682Z,4.80
2022-09-12T12:43:04.728Z,4.10
2022-09-12T12:46:06.727Z,2.80
2022-09-12T12:48:46.535Z,3.97
2022-09-12T12:51:21.269Z,3.30
2022-09-12T12:53:49.886Z,3.47
2022-09-12T12:56:31.397Z,3.00
2022-09-12T12:59:00.564Z,3.10
2022-09-12T13:01:29.937Z,4.00
2022-09-12T13:04:01.257Z,3.00
2022-09-12T13:06:33.412Z,3.67
2022-09-12T13:09:03.775Z,3.00
2022-09-12T13:11:35.886Z,3.40
2022-09-12T13:14:07.012Z,3.20
2022-09-12T13:16:36.909Z,3.63
2022-09-12T13:19:06.998Z,3.30
2022-09-12T13:21:35.829Z,6.33
2022-09-12T13:24:05.710Z,7.43
2022-09-12T13:26:44.715Z,3.70
2022-09-12T13:29:14.997Z,3.20
2022-09-12T13:31:47.369Z,3.70
2022-09-12T13:34:20.078Z,3.80
2022-09-12T13:36:55.607Z,6.17
2022-09-12T13:39:28.181Z,3.77
2022-09-12T13:42:14.725Z,4.23
2022-09-12T13:44:46.488Z,4.80
2022-09-12T13:47:16.601Z,3.37
2022-09-12T13:49:45.736Z,3.23
2022-09-12T13:52:17.645Z,3.73
2022-09-12T13:54:47.978Z,3.53
2022-09-12T13:57:29.319Z,3.40
2022-09-12T14:00:00.430Z,4.55
2022-09-12T14:02:31.350Z,6.28
2022-09-12T14:05:12.016Z,3.50
2022-09-12T14:07:54.567Z,3.72
2022-09-12T14:10:25.730Z,5.80
2022-09-12T14:12:57.208Z,3.30
2022-09-12T14:15:29.378Z,3.63
2022-09-12T14:18:01.404Z,3.83
2022-09-12T14:20:32.674Z,3.83
2022-09-12T14:23:02.359Z,4.25
2022-09-12T14:25:34.957Z,3.95
2022-09-12T14:28:03.847Z,3.47
2022-09-12T14:30:34.782Z,3.78
2022-09-12T14:33:30.498Z,4.45
2022-09-12T14:36:10.471Z,5.15
2022-09-12T14:38:42.076Z,3.83
2022-09-12T14:41:11.613Z,5.28
2022-09-12T14:43:41.047Z,3.90
2022-09-12T14:46:17.320Z,3.17
2022-09-12T14:48:50.334Z,4.63
2022-09-12T14:51:23.035Z,4.10
2022-09-12T14:53:51.844Z,3.45
2022-09-12T14:56:22.924Z,4.13
2022-09-12T14:58:52.744Z,5.00
2022-09-12T15:01:27.534Z,4.00
2022-09-12T15:03:57.760Z,3.30
2022-09-12T15:06:29.340Z,4.00
2022-09-12T15:08:59.671Z,4.72
2022-09-12T15:11:28.261Z,3.40
2022-09-12T15:13:57.075Z,5.82
2022-09-12T15:16:27.087Z,3.40
2022-09-12T15:18:55.744Z,6.53
2022-09-12T15:21:24.426Z,3.65
2022-09-12T15:23:53.834Z,3.85
2022-09-12T15:26:23.522Z,4.28
2022-09-12T15:28:52.588Z,4.53
2022-09-12T15:31:25.365Z,5.57
2022-09-12T15:33:55.918Z,5.18
2022-09-12T15:36:25.592Z,5.35
2022-09-12T15:38:54.608Z,3.43
2022-09-12T15:41:24.244Z,4.40
2022-09-12T15:43:53.476Z,4.97
2022-09-12T15:46:22.433Z,3.47
2022-09-12T15:48:51.140Z,4.57
2022-09-12T15:51:21.786Z,4.73
2022-09-12T15:53:51.043Z,3.53
2022-09-12T15:56:20.169Z,3.80
2022-09-12T15:58:59.072Z,3.80
2022-09-12T16:01:28.370Z,4.27
2022-09-12T16:03:57.378Z,4.10
2022-09-12T16:06:33.529Z,4.70
2022-09-12T16:09:04.970Z,3.40
2022-09-12T16:11:33.467Z,9.00
2022-09-12T16:14:03.709Z,3.53
2022-09-12T16:16:32.517Z,5.13
2022-09-12T16:19:01.702Z,4.47
2022-09-12T16:21:31.912Z,4.83
2022-09-12T16:24:00.565Z,3.93
2022-09-12T16:26:29.635Z,3.30
2022-09-12T16:28:58.859Z,10.47
2022-09-12T16:31:28.948Z,5.00
2022-09-12T16:33:57.815Z,3.97
2022-09-12T16:36:26.491Z,5.87
2022-09-12T16:38:56.818Z,3.40
2022-09-12T16:41:26.582Z,5.90
2022-09-12T16:43:55.685Z,3.60
2022-09-12T16:46:25.610Z,4.63
2022-09-12T16:48:56.008Z,5.43
2022-09-12T16:51:27.258Z,4.33
2022-09-12T16:53:57.690Z,4.70
2022-09-12T16:56:26.623Z,3.50
2022-09-12T16:58:55.593Z,4.20
2022-09-12T17:01:24.954Z,5.10
2022-09-12T17:03:54.630Z,3.90
2022-09-12T17:06:23.159Z,2.83
2022-09-12T17:08:52.891Z,3.60
2022-09-12T17:11:23.651Z,5.87
2022-09-12T17:14:04.488Z,8.97
2022-09-12T17:16:34.757Z,4.10
2022-09-12T17:19:03.481Z,6.90
2022-09-12T17:21:32.006Z,4.27
2022-09-12T17:24:00.708Z,6.00
2022-09-12T17:26:30.630Z,3.70
2022-09-12T17:28:59.425Z,5.10
2022-09-12T17:31:29.054Z,4.60
2022-09-12T17:33:58.872Z,5.60
2022-09-12T17:36:27.542Z,5.70
2022-09-12T17:38:57.103Z,3.60
2022-09-12T17:41:27.343Z,4.43
2022-09-12T17:43:58.813Z,5.50
2022-09-12T17:46:28.062Z,3.83
2022-09-12T17:48:57.394Z,6.77
2022-09-12T17:51:28.933Z,3.90
2022-09-12T17:54:00.154Z,6.07
2022-09-12T17:56:31.189Z,4.97
2022-09-12T17:59:02.011Z,4.83
2022-09-12T18:01:50.427Z,4.40
2022-09-12T18:04:20.367Z,3.90
2022-09-12T18:06:49.549Z,3.60
2022-09-12T18:09:19.547Z,3.67
2022-09-12T18:11:48.752Z,4.97
2022-09-12T18:14:19.132Z,3.47
2022-09-12T18:16:48.322Z,3.50
2022-09-12T18:19:17.422Z,5.17
2022-09-12T18:21:45.955Z,4.40
2022-09-12T18:24:24.720Z,4.43
2022-09-12T18:26:53.318Z,4.60
2022-09-12T18:29:23.371Z,4.77
2022-09-12T18:31:52.552Z,3.40
2022-09-12T18:34:22.254Z,4.03
2022-09-12T18:36:54.192Z,3.80
2022-09-12T18:39:26.858Z,4.20
2022-09-12T18:41:56.639Z,5.20
2022-09-12T18:44:26.839Z,4.20
2022-09-12T18:47:02.231Z,3.73
2022-09-12T18:49:31.850Z,5.13
2022-09-12T18:52:00.459Z,3.57
2022-09-12T18:54:29.283Z,4.97
2022-09-12T18:56:58.308Z,5.63
2022-09-12T18:59:28.334Z,4.37
2022-09-12T19:01:59.970Z,4.50
2022-09-12T19:04:28.896Z,4.20
2022-09-12T19:07:01.639Z,4.20
2022-09-12T19:09:31.304Z,5.27
2022-09-12T19:12:00.164Z,4.77
2022-09-12T19:14:33.996Z,7.70
2022-09-12T19:17:03.175Z,4.23
2022-09-12T19:19:31.830Z,5.00
2022-09-12T19:22:00.351Z,4.30
2022-09-12T19:24:29.439Z,4.83
2022-09-12T19:26:58.494Z,3.60
2022-09-12T19:29:30.047Z,4.80
2022-09-12T19:31:58.932Z,5.83
2022-09-12T19:34:28.067Z,16.77
2022-09-12T19:36:59.431Z,4.40
2022-09-12T19:39:28.187Z,5.53
2022-09-12T19:41:56.784Z,4.17
2022-09-12T19:44:27.500Z,4.20
2022-09-12T19:46:58.026Z,6.10
2022-09-12T19:49:30.325Z,4.73
2022-09-12T19:51:59.259Z,4.43
2022-09-12T19:54:27.850Z,5.47
2022-09-12T19:56:56.506Z,6.27
2022-09-12T19:59:26.147Z,4.50
2022-09-12T20:01:54.885Z,4.80
2022-09-12T20:04:24.860Z,5.67
2022-09-12T20:06:53.467Z,4.40
2022-09-12T20:09:21.956Z,4.27
2022-09-12T20:11:50.443Z,4.93
2022-09-12T20:14:19.073Z,3.90
2022-09-12T20:16:47.885Z,3.67
2022-09-12T20:19:19.217Z,4.50
2022-09-12T20:21:49.273Z,4.43
2022-09-12T20:24:18.812Z,4.27
2022-09-12T20:26:48.139Z,6.97
2022-09-12T20:29:17.434Z,4.50
2022-09-12T20:31:46.309Z,5.03
2022-09-12T20:34:16.563Z,9.50
2022-09-12T20:36:45.502Z,9.23
2022-09-12T20:39:16.548Z,6.70
2022-09-12T20:41:46.606Z,5.43
2022-09-12T20:44:15.533Z,4.93
2022-09-12T20:46:44.462Z,5.07
2022-09-12T20:49:13.293Z,4.70
2022-09-12T20:51:43.048Z,4.97
2022-09-12T20:54:12.175Z,4.70
2022-09-12T20:56:42.444Z,6.80
2022-09-12T20:59:13.283Z,6.63
2022-09-12T21:01:42.118Z,5.13
2022-09-12T21:04:14.789Z,5.60
2022-09-12T21:06:44.050Z,6.70
2022-09-12T21:09:12.781Z,6.43
2022-09-12T21:11:43.018Z,4.50
2022-09-12T21:14:11.879Z,5.47
2022-09-12T21:16:40.491Z,5.13
2022-09-12T21:19:10.887Z,5.03
2022-09-12T21:21:39.693Z,4.37
2022-09-12T21:24:08.577Z,5.67
2022-09-12T21:26:37.110Z,5.50
2022-09-12T21:29:06.967Z,5.83
2022-09-12T21:31:35.674Z,5.63
2022-09-12T21:34:04.334Z,5.87
2022-09-12T21:36:32.903Z,7.57
2022-09-12T21:39:01.476Z,4.93
2022-09-12T21:41:30.118Z,5.53
2022-09-12T21:43:59.016Z,4.43
2022-09-12T21:46:28.930Z,5.60
2022-09-12T21:48:57.595Z,5.73
2022-09-12T21:51:26.054Z,7.53
2022-09-12T21:53:54.908Z,4.80
2022-09-12T21:56:23.911Z,5.10
2022-09-12T21:58:52.560Z,4.77
2022-09-12T22:01:21.232Z,7.80
2022-09-12T22:03:52.164Z,7.03
2022-09-12T22:06:22.518Z,4.37
2022-09-12T22:08:51.310Z,5.07
2022-09-12T22:11:20.853Z,6.10
2022-09-12T22:13:49.558Z,5.33
2022-09-12T22:16:18.354Z,8.00
2022-09-12T22:18:47.554Z,4.80
2022-09-12T22:21:20.317Z,11.40
2022-09-12T22:24:06.750Z,4.60
2022-09-12T22:26:42.058Z,9.93
2022-09-12T22:29:11.053Z,5.90
2022-09-12T22:31:39.821Z,8.13
2022-09-12T22:34:09.190Z,5.53
2022-09-12T22:36:39.663Z,5.60
2022-09-12T22:39:11.521Z,10.07
2022-09-12T22:41:42.462Z,6.53
2022-09-12T22:44:13.539Z,5.87
2022-09-12T22:46:43.089Z,8.27
2022-09-12T22:49:13.172Z,5.50
2022-09-12T22:52:09.309Z,6.23
2022-09-12T22:54:41.256Z,6.93
2022-09-12T22:57:14.026Z,7.27
2022-09-12T22:59:44.358Z,6.53
2022-09-12T23:02:14.242Z,5.53
2022-09-12T23:04:44.366Z,8.33
2022-09-12T23:07:15.851Z,6.03
2022-09-12T23:09:46.481Z,5.80
2022-09-12T23:12:17.925Z,5.20
2022-09-12T23:14:48.686Z,6.73
2022-09-12T23:17:17.860Z,9.10
2022-09-12T23:19:48.896Z,7.57
2022-09-12T23:22:19.108Z,5.20
2022-09-12T23:24:48.283Z,5.00
2022-09-12T23:27:18.614Z,4.80
2022-09-12T23:29:52.258Z,5.37
2022-09-12T23:32:21.228Z,6.73
2022-09-12T23:34:49.752Z,7.70
2022-09-12T23:37:21.702Z,5.97
2022-09-12T23:39:50.368Z,6.37
2022-09-12T23:42:18.950Z,6.30
2022-09-12T23:44:48.022Z,7.97
2022-09-12T23:47:18.398Z,6.40
2022-09-12T23:49:46.855Z,6.20
2022-09-12T23:52:15.471Z,6.77
2022-09-12T23:54:45.387Z,5.03
2022-09-12T23:57:15.152Z,7.83
2022-09-12T23:59:43.778Z,9.80
